createdAt,value
2018-08-30T00:02:00.073Z,94.13
2018-08-30T00:04:28.544Z,93.94
2018-08-30T00:06:57.090Z,94.41
2018-08-30T00:09:25.601Z,94.22
2018-08-30T00:11:54.057Z,93.70
2018-08-30T00:14:22.548Z,94.17
2018-08-30T00:16:51.048Z,94.17
2018-08-30T00:19:19.584Z,94.07
2018-08-30T00:21:48.085Z,94.61
2018-08-30T00:24:16.642Z,94.73
2018-08-30T00:26:45.181Z,94.68
2018-08-30T00:29:13.651Z,94.02
2018-08-30T00:31:42.186Z,94.01
2018-08-30T00:34:10.674Z,94.42
2018-08-30T00:36:39.260Z,94.27
2018-08-30T00:39:09.437Z,93.93
2018-08-30T00:41:38.195Z,94.59
2018-08-30T00:44:13.095Z,94.90
2018-08-30T00:46:41.626Z,94.11
2018-08-30T00:49:10.138Z,94.41
2018-08-30T00:51:38.637Z,93.88
2018-08-30T00:54:07.105Z,93.48
2018-08-30T00:56:35.604Z,93.46
2018-08-30T00:59:04.295Z,94.16
2018-08-30T01:01:32.773Z,94.52
2018-08-30T01:04:01.284Z,94.24
2018-08-30T01:06:29.839Z,94.61
2018-08-30T01:08:58.345Z,94.36
2018-08-30T01:11:26.844Z,93.54
2018-08-30T01:13:55.375Z,94.52
2018-08-30T01:16:24.129Z,94.36
2018-08-30T01:18:52.671Z,94.40
2018-08-30T01:21:21.258Z,94.45
2018-08-30T01:23:49.778Z,94.97
2018-08-30T01:26:18.409Z,94.13
2018-08-30T01:28:46.889Z,94.19
2018-08-30T01:31:15.478Z,93.47
2018-08-30T01:33:44.194Z,93.82
2018-08-30T01:36:12.694Z,93.98
2018-08-30T01:38:41.213Z,93.92
2018-08-30T01:41:09.765Z,94.34
2018-08-30T01:43:38.270Z,94.38
2018-08-30T01:46:06.873Z,93.65
2018-08-30T01:48:35.401Z,93.92
2018-08-30T01:51:03.914Z,94.13
2018-08-30T01:53:32.480Z,93.89
2018-08-30T01:56:01.055Z,94.00
2018-08-30T01:58:29.581Z,94.13
2018-08-30T02:00:58.089Z,94.69
2018-08-30T02:03:26.700Z,94.83
2018-08-30T02:05:55.331Z,94.25
2018-08-30T02:08:23.849Z,94.42
2018-08-30T02:10:52.340Z,94.15
2018-08-30T02:13:20.899Z,94.51
2018-08-30T02:15:49.580Z,93.98
2018-08-30T02:18:18.062Z,93.84
2018-08-30T02:20:46.562Z,93.96
2018-08-30T02:23:15.112Z,94.58
2018-08-30T02:25:43.723Z,94.30
2018-08-30T02:28:12.252Z,94.59
2018-08-30T02:30:40.819Z,94.27
2018-08-30T02:33:09.466Z,94.25
2018-08-30T02:35:38.107Z,94.05
2018-08-30T02:38:06.658Z,94.22
2018-08-30T02:40:35.166Z,94.58
2018-08-30T02:43:03.802Z,94.41
2018-08-30T02:45:32.435Z,94.36
2018-08-30T02:48:01.010Z,94.51
2018-08-30T02:50:29.549Z,95.14
2018-08-30T02:52:58.073Z,94.91
2018-08-30T02:55:26.597Z,94.49
2018-08-30T02:57:55.530Z,94.67
2018-08-30T03:00:24.482Z,94.73
2018-08-30T03:02:53.038Z,94.86
2018-08-30T03:05:21.565Z,94.76
2018-08-30T03:07:50.055Z,94.52
2018-08-30T03:10:18.589Z,94.66
2018-08-30T03:12:47.162Z,94.05
2018-08-30T03:15:16.290Z,94.52
2018-08-30T03:17:44.773Z,94.61
2018-08-30T03:20:14.365Z,94.21
2018-08-30T03:22:43.187Z,93.98
2018-08-30T03:25:11.810Z,93.79
2018-08-30T03:27:40.265Z,93.83
2018-08-30T03:30:09.215Z,93.77
2018-08-30T03:32:37.699Z,94.80
2018-08-30T03:35:06.209Z,94.15
2018-08-30T03:37:34.764Z,94.60
2018-08-30T03:40:03.334Z,94.53
2018-08-30T03:42:31.896Z,94.49
2018-08-30T03:45:00.386Z,94.80
2018-08-30T03:47:28.922Z,95.14
2018-08-30T03:49:57.455Z,94.19
2018-08-30T03:52:26.122Z,95.13
2018-08-30T03:54:54.650Z,95.12
2018-08-30T03:57:23.197Z,95.13
2018-08-30T03:59:51.788Z,95.04
2018-08-30T04:02:20.303Z,94.79
2018-08-30T04:04:48.858Z,95.17
2018-08-30T04:07:17.522Z,95.00
2018-08-30T04:09:46.057Z,95.12
2018-08-30T04:12:14.659Z,95.42
2018-08-30T04:14:43.179Z,95.15
2018-08-30T04:17:11.735Z,94.93
2018-08-30T04:19:40.348Z,95.51
2018-08-30T04:22:08.993Z,95.70
2018-08-30T04:24:37.390Z,96.21
2018-08-30T04:27:06.102Z,95.00
2018-08-30T04:29:34.617Z,95.14
2018-08-30T04:32:03.381Z,95.10
2018-08-30T04:34:31.885Z,95.31
2018-08-30T04:37:00.429Z,95.20
2018-08-30T04:39:28.952Z,95.20
2018-08-30T04:41:57.493Z,95.22
2018-08-30T04:44:26.037Z,95.01
2018-08-30T04:46:54.513Z,95.02
2018-08-30T04:49:23.041Z,95.45
2018-08-30T04:51:51.620Z,95.49
2018-08-30T04:54:20.174Z,95.99
2018-08-30T04:56:48.697Z,95.45
2018-08-30T04:59:17.207Z,96.23
2018-08-30T05:01:52.630Z,95.31
2018-08-30T05:04:21.254Z,95.49
2018-08-30T05:06:49.794Z,95.41
2018-08-30T05:09:18.292Z,94.63
2018-08-30T05:11:46.773Z,94.81
2018-08-30T05:14:15.314Z,94.87
2018-08-30T05:16:44.090Z,95.24
2018-08-30T05:19:12.699Z,95.22
2018-08-30T05:21:41.218Z,94.90
2018-08-30T05:24:09.740Z,94.72
2018-08-30T05:26:38.263Z,95.04
2018-08-30T05:29:06.794Z,94.82
2018-08-30T05:31:35.476Z,93.71
2018-08-30T05:34:03.981Z,94.29
2018-08-30T05:36:32.555Z,93.80
2018-08-30T05:39:01.115Z,93.69
2018-08-30T05:41:29.657Z,92.75
2018-08-30T05:43:58.548Z,92.85
2018-08-30T05:46:27.042Z,93.38
2018-08-30T05:48:55.551Z,92.91
2018-08-30T05:51:24.088Z,92.24
2018-08-30T05:53:52.557Z,91.68
2018-08-30T05:56:21.522Z,90.56
2018-08-30T05:58:50.056Z,90.74
2018-08-30T06:01:18.598Z,90.74
2018-08-30T06:03:47.118Z,89.95
2018-08-30T06:06:15.630Z,90.73
2018-08-30T06:08:44.154Z,88.61
2018-08-30T06:11:12.748Z,88.75
2018-08-30T06:13:41.358Z,88.42
2018-08-30T06:16:09.999Z,88.50
2018-08-30T06:18:38.518Z,87.55
2018-08-30T06:21:07.061Z,87.54
2018-08-30T06:23:36.261Z,86.63
2018-08-30T06:26:04.826Z,87.51
2018-08-30T06:28:34.768Z,86.52
2018-08-30T06:31:03.331Z,87.84
2018-08-30T06:33:31.870Z,86.42
2018-08-30T06:36:00.473Z,86.52
2018-08-30T06:38:29.172Z,86.62
2018-08-30T06:40:57.727Z,87.17
2018-08-30T06:43:26.285Z,85.56
2018-08-30T06:45:54.819Z,86.47
2018-08-30T06:48:23.396Z,85.85
2018-08-30T06:50:51.934Z,86.65
2018-08-30T06:53:20.463Z,86.29
2018-08-30T06:55:48.987Z,85.17
2018-08-30T06:58:17.583Z,85.72
2018-08-30T07:00:46.068Z,85.58
2018-08-30T07:03:14.559Z,85.28
2018-08-30T07:05:43.102Z,85.44
2018-08-30T07:08:11.760Z,85.64
2018-08-30T07:10:40.375Z,84.83
2018-08-30T07:13:08.974Z,83.60
2018-08-30T07:15:37.626Z,85.38
2018-08-30T07:18:07.140Z,84.66
2018-08-30T07:20:35.669Z,84.86
2018-08-30T07:23:04.314Z,83.80
2018-08-30T07:25:32.850Z,83.50
2018-08-30T07:28:01.801Z,83.87
2018-08-30T07:30:30.307Z,82.68
2018-08-30T07:32:58.778Z,83.97
2018-08-30T07:35:27.364Z,83.83
2018-08-30T07:37:55.878Z,83.78
2018-08-30T07:40:24.635Z,82.22
2018-08-30T07:42:53.135Z,82.57
2018-08-30T07:45:21.609Z,82.50
2018-08-30T07:47:50.565Z,82.10
2018-08-30T07:50:19.094Z,80.82
2018-08-30T07:52:47.722Z,80.68
2018-08-30T07:55:16.397Z,80.49
2018-08-30T07:57:44.890Z,79.82
2018-08-30T08:00:13.379Z,80.10
2018-08-30T08:02:42.000Z,79.93
2018-08-30T08:05:10.552Z,80.89
2018-08-30T08:07:39.202Z,79.63
2018-08-30T08:10:07.846Z,79.78
2018-08-30T08:12:36.371Z,78.52
2018-08-30T08:15:04.927Z,77.20
2018-08-30T08:17:33.577Z,76.21
2018-08-30T08:20:02.078Z,76.79
2018-08-30T08:22:30.641Z,75.90
2018-08-30T08:24:59.219Z,74.28
2018-08-30T08:27:27.998Z,74.89
2018-08-30T08:29:59.372Z,75.01
2018-08-30T08:32:27.974Z,73.79
2018-08-30T08:34:56.598Z,73.30
2018-08-30T08:37:25.104Z,73.87
2018-08-30T08:39:53.641Z,72.49
2018-08-30T08:42:22.134Z,73.17
2018-08-30T08:44:50.681Z,71.13
2018-08-30T08:47:19.238Z,71.85
2018-08-30T08:49:47.785Z,69.47
2018-08-30T08:52:16.346Z,70.74
2018-08-30T08:54:44.898Z,70.63
2018-08-30T08:57:13.386Z,71.24
2018-08-30T08:59:41.969Z,69.57
2018-08-30T09:02:10.567Z,69.46
2018-08-30T09:04:39.404Z,69.37
2018-08-30T09:07:07.942Z,69.79
2018-08-30T09:09:36.525Z,68.04
2018-08-30T09:12:05.178Z,68.76
2018-08-30T09:14:33.781Z,67.82
2018-08-30T09:17:02.454Z,68.42
2018-08-30T09:19:31.062Z,68.34
2018-08-30T09:21:59.782Z,66.85
2018-08-30T09:24:28.264Z,66.92
2018-08-30T09:26:56.907Z,67.96
2018-08-30T09:29:25.423Z,67.58
2018-08-30T09:31:53.915Z,66.45
2018-08-30T09:34:22.702Z,65.43
2018-08-30T09:36:52.115Z,65.65
2018-08-30T09:39:20.655Z,65.86
2018-08-30T09:41:49.154Z,65.21
2018-08-30T09:44:17.659Z,64.95
2018-08-30T09:46:46.536Z,63.99
2018-08-30T09:49:15.067Z,63.43
2018-08-30T09:51:43.554Z,64.08
2018-08-30T09:54:12.050Z,64.04
2018-08-30T09:56:40.675Z,62.59
2018-08-30T09:59:09.223Z,65.14
2018-08-30T10:01:43.011Z,66.97
2018-08-30T10:04:11.590Z,67.63
2018-08-30T10:06:40.270Z,65.08
2018-08-30T10:09:10.150Z,62.64
2018-08-30T10:11:39.551Z,61.91
2018-08-30T10:14:08.233Z,63.86
2018-08-30T10:16:36.942Z,63.05
2018-08-30T10:19:05.458Z,61.57
2018-08-30T10:21:34.070Z,62.33
2018-08-30T10:24:02.532Z,62.04
2018-08-30T10:26:31.088Z,62.75
2018-08-30T10:28:59.678Z,61.18
2018-08-30T10:31:28.271Z,60.61
2018-08-30T10:33:56.815Z,60.06
2018-08-30T10:36:25.333Z,59.91
2018-08-30T10:38:53.882Z,61.03
2018-08-30T10:41:22.426Z,61.05
2018-08-30T10:43:51.058Z,62.55
2018-08-30T10:46:19.575Z,62.02
2018-08-30T10:48:48.161Z,70.08
2018-08-30T10:51:16.674Z,74.75
2018-08-30T10:53:45.212Z,79.88
2018-08-30T10:56:14.771Z,80.82
2018-08-30T10:58:43.348Z,82.11
2018-08-30T11:01:11.887Z,81.40
2018-08-30T11:03:40.555Z,78.98
2018-08-30T11:06:09.284Z,80.97
2018-08-30T11:08:37.789Z,78.60
2018-08-30T11:11:06.359Z,78.47
2018-08-30T11:13:35.108Z,79.65
2018-08-30T11:16:03.653Z,78.66
2018-08-30T11:18:32.162Z,79.40
2018-08-30T11:21:00.658Z,78.07
2018-08-30T11:23:29.258Z,78.65
2018-08-30T11:25:57.783Z,77.14
2018-08-30T11:28:26.302Z,77.37
2018-08-30T11:30:54.855Z,75.53
2018-08-30T11:33:23.399Z,76.59
2018-08-30T11:35:51.906Z,75.60
2018-08-30T11:38:20.470Z,75.14
2018-08-30T11:40:48.994Z,73.61
2018-08-30T11:43:17.765Z,74.14
2018-08-30T11:45:47.006Z,72.91
2018-08-30T11:48:15.510Z,72.20
2018-08-30T11:50:44.057Z,71.22
2018-08-30T11:53:12.562Z,70.49
2018-08-30T11:55:41.258Z,73.98
2018-08-30T11:58:09.971Z,80.81
2018-08-30T12:00:39.420Z,84.15
2018-08-30T12:03:07.998Z,86.69
2018-08-30T12:05:36.565Z,88.37
2018-08-30T12:08:06.139Z,89.36
2018-08-30T12:10:37.031Z,89.29
2018-08-30T12:13:05.610Z,90.37
2018-08-30T12:15:34.226Z,89.15
2018-08-30T12:18:03.146Z,89.79
2018-08-30T12:20:31.724Z,90.03
2018-08-30T12:23:00.437Z,90.77
2018-08-30T12:25:28.979Z,89.35
2018-08-30T12:27:57.569Z,89.68
2018-08-30T12:30:26.113Z,89.08
2018-08-30T12:32:54.645Z,89.41
2018-08-30T12:35:23.384Z,88.78
2018-08-30T12:37:51.877Z,88.60
2018-08-30T12:40:20.665Z,88.89
2018-08-30T12:42:49.352Z,87.20
2018-08-30T12:45:19.344Z,87.06
2018-08-30T12:47:48.134Z,88.47
2018-08-30T12:50:16.776Z,88.56
2018-08-30T12:52:45.291Z,88.17
2018-08-30T12:55:13.855Z,87.33
2018-08-30T12:57:42.477Z,89.29
2018-08-30T13:00:11.875Z,88.73
2018-08-30T13:02:40.389Z,86.64
2018-08-30T13:05:08.969Z,87.76
2018-08-30T13:07:37.620Z,88.17
2018-08-30T13:10:06.368Z,85.95
2018-08-30T13:12:34.917Z,86.79
2018-08-30T13:15:03.670Z,87.60
2018-08-30T13:17:33.072Z,86.70
2018-08-30T13:20:01.831Z,85.09
2018-08-30T13:22:30.306Z,84.79
2018-08-30T13:24:59.413Z,83.78
2018-08-30T13:27:27.705Z,81.86
2018-08-30T13:29:56.474Z,80.81
2018-08-30T13:32:25.182Z,80.11
2018-08-30T13:34:54.102Z,80.77
2018-08-30T13:37:22.706Z,78.59
2018-08-30T13:39:51.240Z,76.77
2018-08-30T13:42:20.618Z,78.34
2018-08-30T13:44:49.180Z,78.29
2018-08-30T13:47:17.671Z,79.83
2018-08-30T13:49:46.098Z,78.82
2018-08-30T13:52:15.094Z,76.53
2018-08-30T13:54:43.677Z,76.16
2018-08-30T13:57:14.157Z,76.33
2018-08-30T13:59:43.003Z,76.40
2018-08-30T14:02:17.939Z,76.66
2018-08-30T14:04:46.388Z,77.21
2018-08-30T14:07:14.820Z,75.94
2018-08-30T14:09:43.545Z,73.28
2018-08-30T14:12:12.273Z,74.93
2018-08-30T14:14:40.621Z,73.34
2018-08-30T14:17:08.874Z,76.14
2018-08-30T14:19:37.535Z,74.69
2018-08-30T14:22:06.067Z,73.85
2018-08-30T14:24:34.814Z,73.70
2018-08-30T14:27:03.849Z,72.29
2018-08-30T14:29:32.186Z,69.51
2018-08-30T14:32:00.666Z,70.65
2018-08-30T14:34:29.187Z,71.41
2018-08-30T14:36:57.924Z,72.87
2018-08-30T14:39:26.554Z,71.14
2018-08-30T14:41:55.150Z,71.89
2018-08-30T14:44:23.966Z,70.55
2018-08-30T14:46:52.474Z,71.41
2018-08-30T14:49:21.016Z,72.03
2018-08-30T14:51:49.579Z,71.64
2018-08-30T14:54:18.223Z,71.14
2018-08-30T14:56:46.735Z,70.98
2018-08-30T14:59:15.278Z,71.20
2018-08-30T15:01:43.898Z,71.10
2018-08-30T15:04:12.406Z,67.86
2018-08-30T15:06:40.874Z,70.68
2018-08-30T15:09:09.721Z,69.62
2018-08-30T15:11:38.233Z,68.82
2018-08-30T15:14:07.114Z,70.51
2018-08-30T15:16:35.630Z,70.50
2018-08-30T15:19:04.322Z,70.50
2018-08-30T15:21:33.043Z,69.57
2018-08-30T15:24:01.558Z,68.63
2018-08-30T15:26:30.022Z,68.06
2018-08-30T15:28:58.542Z,69.21
2018-08-30T15:31:28.525Z,69.41
2018-08-30T15:33:57.786Z,70.36
2018-08-30T15:36:26.286Z,69.84
2018-08-30T15:38:54.805Z,71.72
2018-08-30T15:41:23.318Z,69.15
2018-08-30T15:43:51.996Z,68.76
2018-08-30T15:46:20.559Z,66.00
2018-08-30T15:48:49.160Z,65.73
2018-08-30T15:51:18.098Z,66.12
2018-08-30T15:53:46.484Z,65.75
2018-08-30T15:56:15.149Z,65.37
2018-08-30T15:58:43.614Z,64.81
2018-08-30T16:01:12.132Z,65.78
2018-08-30T16:03:40.679Z,65.42
2018-08-30T16:06:09.290Z,65.03
2018-08-30T16:08:37.818Z,64.44
2018-08-30T16:11:06.386Z,64.32
2018-08-30T16:13:34.890Z,64.93
2018-08-30T16:16:03.463Z,63.26
2018-08-30T16:18:32.638Z,64.74
2018-08-30T16:21:01.373Z,61.68
2018-08-30T16:23:32.410Z,62.03
2018-08-30T16:26:00.891Z,63.04
2018-08-30T16:28:30.376Z,63.32
2018-08-30T16:30:59.261Z,64.48
2018-08-30T16:33:27.947Z,63.84
2018-08-30T16:35:56.897Z,62.41
2018-08-30T16:38:25.545Z,64.20
2018-08-30T16:40:54.219Z,63.97
2018-08-30T16:43:22.961Z,61.78
2018-08-30T16:45:51.558Z,63.16
2018-08-30T16:48:20.014Z,63.29
2018-08-30T16:50:48.530Z,63.10
2018-08-30T16:53:17.108Z,62.57
2018-08-30T16:55:45.592Z,63.28
2018-08-30T16:58:14.601Z,62.92
2018-08-30T17:00:43.160Z,62.58
2018-08-30T17:03:11.725Z,63.40
2018-08-30T17:05:40.314Z,63.05
2018-08-30T17:08:08.795Z,61.26
2018-08-30T17:10:37.307Z,63.71
2018-08-30T17:13:06.215Z,62.57
2018-08-30T17:15:34.738Z,62.05
2018-08-30T17:18:03.268Z,62.20
2018-08-30T17:20:41.498Z,62.61
2018-08-30T17:23:10.335Z,62.63
2018-08-30T17:25:38.858Z,63.68
2018-08-30T17:28:07.346Z,63.21
2018-08-30T17:30:35.978Z,63.58
2018-08-30T17:33:04.575Z,63.58
2018-08-30T17:35:33.212Z,63.67
2018-08-30T17:38:01.808Z,63.19
2018-08-30T17:40:30.309Z,62.69
2018-08-30T17:42:58.930Z,64.51
2018-08-30T17:45:27.653Z,64.73
2018-08-30T17:47:56.250Z,65.80
2018-08-30T17:50:24.849Z,66.55
2018-08-30T17:52:53.311Z,66.76
2018-08-30T17:55:22.038Z,66.83
2018-08-30T17:57:50.561Z,68.00
2018-08-30T18:00:19.360Z,66.93
2018-08-30T18:02:48.164Z,68.14
2018-08-30T18:05:16.857Z,67.93
2018-08-30T18:07:45.776Z,68.86
2018-08-30T18:10:14.368Z,70.09
2018-08-30T18:12:42.850Z,69.79
2018-08-30T18:15:13.233Z,69.22
2018-08-30T18:17:41.800Z,70.35
2018-08-30T18:20:10.374Z,70.73
2018-08-30T18:22:38.965Z,71.90
2018-08-30T18:25:08.419Z,73.09
2018-08-30T18:27:37.600Z,73.82
2018-08-30T18:30:07.475Z,74.06
2018-08-30T18:32:36.098Z,74.99
2018-08-30T18:35:04.783Z,75.24
2018-08-30T18:37:33.325Z,75.83
2018-08-30T18:40:01.831Z,77.21
2018-08-30T18:42:30.493Z,78.63
2018-08-30T18:44:59.040Z,79.98
2018-08-30T18:47:27.704Z,79.92
2018-08-30T18:49:56.576Z,80.65
2018-08-30T18:52:25.380Z,82.82
2018-08-30T18:54:54.633Z,83.55
2018-08-30T18:57:23.648Z,84.74
2018-08-30T18:59:52.763Z,84.97
2018-08-30T19:02:21.716Z,84.93
2018-08-30T19:04:50.749Z,85.60
2018-08-30T19:07:19.896Z,85.30
2018-08-30T19:09:49.043Z,85.94
2018-08-30T19:12:18.147Z,86.15
2018-08-30T19:14:47.104Z,85.48
2018-08-30T19:17:21.341Z,86.25
2018-08-30T19:19:50.399Z,86.19
2018-08-30T19:22:19.772Z,86.88
2018-08-30T19:24:54.341Z,87.01
2018-08-30T19:27:23.712Z,86.40
2018-08-30T19:29:58.238Z,86.40
2018-08-30T19:32:27.904Z,86.47
2018-08-30T19:35:01.103Z,86.30
2018-08-30T19:37:30.119Z,86.59
2018-08-30T19:39:58.895Z,86.00
2018-08-30T19:42:27.619Z,86.33
2018-08-30T19:44:58.387Z,86.66
2018-08-30T19:47:27.012Z,85.72
2018-08-30T19:49:55.673Z,86.03
2018-08-30T19:52:24.218Z,86.20
2018-08-30T19:54:52.991Z,86.20
2018-08-30T19:57:21.452Z,86.34
2018-08-30T19:59:50.019Z,86.21
2018-08-30T20:02:18.559Z,86.76
2018-08-30T20:04:47.040Z,86.78
2018-08-30T20:07:16.053Z,87.23
2018-08-30T20:09:44.668Z,87.08
2018-08-30T20:12:13.182Z,86.50
2018-08-30T20:14:41.833Z,86.60
2018-08-30T20:17:10.437Z,86.51
2018-08-30T20:19:39.150Z,86.70
2018-08-30T20:22:10.320Z,86.68
2018-08-30T20:24:38.787Z,86.72
2018-08-30T20:27:07.594Z,86.80
2018-08-30T20:29:36.139Z,86.92
2018-08-30T20:32:04.701Z,87.35
2018-08-30T20:34:33.371Z,87.19
2018-08-30T20:37:02.095Z,87.14
2018-08-30T20:39:30.652Z,87.11
2018-08-30T20:41:59.306Z,87.60
2018-08-30T20:44:27.801Z,88.09
2018-08-30T20:46:56.289Z,87.42
2018-08-30T20:49:25.029Z,87.38
2018-08-30T20:51:53.610Z,87.80
2018-08-30T20:54:22.147Z,87.33
2018-08-30T20:56:50.734Z,87.06
2018-08-30T20:59:19.271Z,87.77
2018-08-30T21:01:47.833Z,87.39
2018-08-30T21:04:16.385Z,88.14
2018-08-30T21:06:45.074Z,87.58
2018-08-30T21:09:13.604Z,87.13
2018-08-30T21:11:42.456Z,86.91
2018-08-30T21:14:10.954Z,87.18
2018-08-30T21:16:39.439Z,87.25
2018-08-30T21:19:07.948Z,87.32
2018-08-30T21:21:36.527Z,87.50
2018-08-30T21:24:05.422Z,86.91
2018-08-30T21:26:33.922Z,86.86
2018-08-30T21:29:02.579Z,86.91
2018-08-30T21:31:31.553Z,86.55
2018-08-30T21:34:00.054Z,86.83
2018-08-30T21:36:28.563Z,87.15
2018-08-30T21:38:57.133Z,87.20
2018-08-30T21:41:25.594Z,87.08
2018-08-30T21:43:54.093Z,86.98
2018-08-30T21:46:22.686Z,87.42
2018-08-30T21:48:51.596Z,87.16
2018-08-30T21:51:20.074Z,87.96
2018-08-30T21:53:48.636Z,87.70
2018-08-30T21:56:17.151Z,87.57
2018-08-30T21:58:45.845Z,87.30
2018-08-30T22:01:14.329Z,87.76
2018-08-30T22:03:42.860Z,87.66
2018-08-30T22:06:11.366Z,87.86
2018-08-30T22:08:39.973Z,87.34
2018-08-30T22:11:08.502Z,87.10
2018-08-30T22:13:36.982Z,87.32
2018-08-30T22:16:05.563Z,87.66
2018-08-30T22:18:34.066Z,87.81
2018-08-30T22:21:02.643Z,87.52
2018-08-30T22:23:31.205Z,87.83
2018-08-30T22:25:59.727Z,87.72
2018-08-30T22:28:28.374Z,87.10
2018-08-30T22:30:56.878Z,87.20
2018-08-30T22:33:25.605Z,88.06
2018-08-30T22:35:54.099Z,88.61
2018-08-30T22:38:22.628Z,88.44
2018-08-30T22:40:51.234Z,88.32
2018-08-30T22:43:19.720Z,88.22
2018-08-30T22:45:48.226Z,88.52
2018-08-30T22:48:16.698Z,87.97
2018-08-30T22:50:45.341Z,87.94
2018-08-30T22:53:13.843Z,88.25
2018-08-30T22:55:42.687Z,88.42
2018-08-30T22:58:11.175Z,87.63
2018-08-30T23:00:39.839Z,87.57
2018-08-30T23:03:08.549Z,88.28
2018-08-30T23:05:37.037Z,88.22
2018-08-30T23:08:05.609Z,87.79
2018-08-30T23:10:34.102Z,87.83
2018-08-30T23:13:02.641Z,87.64
2018-08-30T23:15:31.161Z,87.86
2018-08-30T23:17:59.640Z,87.79
2018-08-30T23:20:28.163Z,88.02
2018-08-30T23:22:56.628Z,87.77
2018-08-30T23:25:25.099Z,87.72
2018-08-30T23:27:53.609Z,87.92
2018-08-30T23:30:22.107Z,87.49
2018-08-30T23:32:50.666Z,87.75
2018-08-30T23:35:19.121Z,87.93
2018-08-30T23:37:47.661Z,87.47
2018-08-30T23:40:16.316Z,87.62
2018-08-30T23:42:44.809Z,87.03
2018-08-30T23:45:13.371Z,87.21
2018-08-30T23:47:41.967Z,87.48
2018-08-30T23:50:10.466Z,87.44
2018-08-30T23:52:39.195Z,87.14
2018-08-30T23:55:07.882Z,87.51
2018-08-30T23:57:36.908Z,87.88
